createdAt,value
2019-05-01T00:04:21.873Z,95665.00
2019-05-01T00:09:51.403Z,95668.00
2019-05-01T00:15:23.183Z,95659.00
2019-05-01T00:20:52.500Z,95659.00
2019-05-01T00:26:21.799Z,95649.00
2019-05-01T00:31:51.139Z,95642.00
2019-05-01T00:37:20.455Z,95644.00
2019-05-01T00:42:49.804Z,95637.00
2019-05-01T00:48:19.579Z,95638.00
2019-05-01T00:53:50.401Z,95629.00
2019-05-01T00:59:21.769Z,95622.00
2019-05-01T01:04:51.246Z,95624.00
2019-05-01T01:10:21.857Z,95621.00
2019-05-01T01:15:51.187Z,95619.00
2019-05-01T01:21:20.535Z,95621.00
2019-05-01T01:26:50.078Z,95608.00
2019-05-01T01:32:19.542Z,95612.00
2019-05-01T01:37:48.894Z,95608.00
2019-05-01T01:43:36.572Z,95607.00
2019-05-01T01:49:06.029Z,95591.00
2019-05-01T01:54:35.559Z,95598.00
2019-05-01T02:00:08.336Z,95595.00
2019-05-01T02:05:39.553Z,95590.00
2019-05-01T02:11:09.193Z,95592.00
2019-05-01T02:16:38.630Z,95587.00
2019-05-01T02:22:08.150Z,95583.00
2019-05-01T02:27:39.221Z,95578.00
2019-05-01T02:33:09.159Z,95579.00
2019-05-01T02:38:40.865Z,95563.00
2019-05-01T02:44:14.219Z,95571.00
2019-05-01T02:49:53.328Z,95561.00
2019-05-01T02:55:27.258Z,95561.00
2019-05-01T03:00:56.785Z,95563.00
2019-05-01T03:06:29.222Z,95560.00
2019-05-01T03:12:01.043Z,95558.00
2019-05-01T03:17:47.492Z,95552.00
2019-05-01T03:23:31.490Z,95557.00
2019-05-01T03:29:01.035Z,95560.00
2019-05-01T03:34:30.684Z,95561.00
2019-05-01T03:40:00.169Z,95568.00
2019-05-01T03:45:33.747Z,95555.00
2019-05-01T03:51:01.115Z,95554.00
2019-05-01T03:56:30.660Z,95540.00
2019-05-01T04:02:04.702Z,95536.00
2019-05-01T04:07:36.503Z,95542.00
2019-05-01T04:13:05.446Z,95545.00
2019-05-01T04:18:35.943Z,95549.00
2019-05-01T04:24:05.518Z,95547.00
2019-05-01T04:29:45.130Z,95557.00
2019-05-01T04:35:22.195Z,95562.00
2019-05-01T04:40:51.640Z,95568.00
2019-05-01T04:46:21.191Z,95573.00
2019-05-01T04:51:50.659Z,95568.00
2019-05-01T04:57:20.125Z,95573.00
2019-05-01T05:03:06.187Z,95581.00
2019-05-01T05:08:35.577Z,95580.00
2019-05-01T05:14:09.739Z,95588.00
2019-05-01T05:19:39.890Z,95595.00
2019-05-01T05:25:09.351Z,95594.00
2019-05-01T05:30:41.107Z,95600.00
2019-05-01T05:36:11.963Z,95601.00
2019-05-01T05:41:42.811Z,95605.00
2019-05-01T05:47:12.335Z,95605.00
2019-05-01T05:58:35.179Z,95595.00
2019-05-01T06:04:14.835Z,95611.00
2019-05-01T06:09:55.116Z,95609.00
2019-05-01T06:15:41.157Z,95607.00
2019-05-01T06:21:13.001Z,95607.00
2019-05-01T06:26:43.222Z,95605.00
2019-05-01T06:32:12.502Z,95606.00
2019-05-01T06:38:04.536Z,95604.00
2019-05-01T06:43:47.769Z,95604.00
2019-05-01T06:49:29.393Z,95602.00
2019-05-01T06:54:57.456Z,95611.00
2019-05-01T07:00:26.802Z,95609.00
2019-05-01T07:05:56.356Z,95618.00
2019-05-01T07:11:26.178Z,95604.00
2019-05-01T07:16:56.112Z,95611.00
2019-05-01T07:22:26.006Z,95609.00
2019-05-01T07:27:58.586Z,95612.00
2019-05-01T07:33:26.708Z,95603.00
2019-05-01T07:38:56.121Z,95608.00
2019-05-01T07:44:39.467Z,95605.00
2019-05-01T07:50:16.088Z,95606.00
2019-05-01T07:55:48.641Z,95606.00
2019-05-01T08:01:27.485Z,95599.00
2019-05-01T08:06:57.554Z,95604.00
2019-05-01T08:12:28.024Z,95612.00
2019-05-01T08:17:58.941Z,95602.00
2019-05-01T08:23:28.694Z,95616.00
2019-05-01T08:29:03.045Z,95609.00
2019-05-01T08:34:32.308Z,95613.00
2019-05-01T08:40:02.537Z,95608.00
2019-05-01T08:45:35.788Z,95610.00
2019-05-01T08:51:04.669Z,95607.00
2019-05-01T08:56:33.965Z,95622.00
2019-05-01T09:02:09.534Z,95607.00
2019-05-01T09:07:34.488Z,95606.00
2019-05-01T09:13:03.798Z,95604.00
2019-05-01T09:18:33.092Z,95606.00
2019-05-01T09:24:02.541Z,95596.00
2019-05-01T09:29:33.469Z,95596.00
2019-05-01T09:35:15.090Z,95600.00
2019-05-01T09:40:33.909Z,95598.00
2019-05-01T09:46:03.748Z,95593.00
2019-05-01T09:51:52.096Z,95589.00
2019-05-01T09:57:21.662Z,95593.00
2019-05-01T10:02:50.938Z,95591.00
2019-05-01T10:08:21.152Z,95585.00
2019-05-01T10:13:53.647Z,95587.00
2019-05-01T10:19:21.444Z,95584.00
2019-05-01T10:24:50.735Z,95583.00
2019-05-01T10:30:38.024Z,95585.00
2019-05-01T10:36:18.733Z,95571.00
2019-05-01T10:41:46.453Z,95570.00
2019-05-01T10:47:17.138Z,95557.00
2019-05-01T10:52:46.421Z,95557.00
2019-05-01T10:58:18.281Z,95557.00
2019-05-01T11:03:46.842Z,95555.00
2019-05-01T11:09:16.207Z,95545.00
2019-05-01T11:14:45.480Z,95545.00
2019-05-01T11:20:16.054Z,95531.00
2019-05-01T11:25:45.333Z,95529.00
2019-05-01T11:31:16.259Z,95525.00
2019-05-01T11:36:50.069Z,95525.00
2019-05-01T11:42:19.486Z,95524.00
2019-05-01T11:47:48.756Z,95520.00
2019-05-01T11:59:03.881Z,95519.00
2019-05-01T12:04:33.094Z,95526.00
2019-05-01T12:10:14.419Z,95518.00
2019-05-01T12:15:45.423Z,95518.00
2019-05-01T12:21:14.726Z,95521.00
2019-05-01T12:26:44.037Z,95512.00
2019-05-01T12:32:13.306Z,95507.00
2019-05-01T12:37:43.154Z,95513.00
2019-05-01T12:43:12.500Z,95506.00
2019-05-01T12:48:42.332Z,95500.00
2019-05-01T12:54:13.529Z,95488.00
2019-05-01T12:59:42.800Z,95483.00
2019-05-01T13:05:12.283Z,95481.00
2019-05-01T13:10:41.811Z,95487.00
2019-05-01T13:16:11.107Z,95474.00
2019-05-01T13:21:40.394Z,95486.00
2019-05-01T13:27:13.982Z,95470.00
2019-05-01T13:32:48.185Z,95475.00
2019-05-01T13:38:17.472Z,95463.00
2019-05-01T13:43:46.748Z,95449.00
2019-05-01T13:49:16.325Z,95437.00
2019-05-01T13:54:45.629Z,95443.00
2019-05-01T14:00:16.022Z,95429.00
2019-05-01T14:05:45.322Z,95432.00
2019-05-01T14:11:14.630Z,95425.00
2019-05-01T14:16:44.102Z,95418.00
2019-05-01T14:22:31.219Z,95415.00
2019-05-01T14:28:00.588Z,95425.00
2019-05-01T14:33:30.211Z,95418.00
2019-05-01T14:38:59.495Z,95413.00
2019-05-01T14:44:36.461Z,95394.00
2019-05-01T14:49:59.996Z,95400.00
2019-05-01T14:55:29.314Z,95375.00
2019-05-01T15:01:00.612Z,95368.00
2019-05-01T15:06:30.043Z,95394.00
2019-05-01T15:11:59.529Z,95384.00
2019-05-01T15:17:30.459Z,95378.00
2019-05-01T15:22:59.749Z,95384.00
2019-05-01T15:28:30.296Z,95367.00
2019-05-01T15:33:59.942Z,95376.00
2019-05-01T15:39:30.859Z,95358.00
2019-05-01T15:45:00.258Z,95363.00
2019-05-01T15:50:30.531Z,95371.00
2019-05-01T15:56:00.380Z,95371.00
2019-05-01T16:01:30.006Z,95364.00
2019-05-01T16:17:20.634Z,95367.00
2019-05-01T16:23:11.183Z,95357.00
2019-05-01T16:28:40.675Z,95348.00
2019-05-01T16:34:10.355Z,95352.00
2019-05-01T16:39:47.197Z,95354.00
2019-05-01T16:45:17.201Z,95343.00
2019-05-01T16:50:46.890Z,95347.00
2019-05-01T16:56:16.677Z,95342.00
2019-05-01T17:01:48.388Z,95343.00
2019-05-01T17:07:19.755Z,95336.00
2019-05-01T17:12:52.720Z,95334.00
2019-05-01T17:18:22.513Z,95331.00
2019-05-01T17:23:54.967Z,95326.00
2019-05-01T17:29:26.997Z,95335.00
2019-05-01T17:35:01.894Z,95330.00
2019-05-01T17:40:31.982Z,95335.00
2019-05-01T17:46:01.401Z,95330.00
2019-05-01T17:51:33.023Z,95332.00
2019-05-01T17:57:27.608Z,95335.00
2019-05-01T18:02:59.370Z,95337.00
2019-05-01T18:08:28.853Z,95329.00
2019-05-01T18:14:11.583Z,95328.00
2019-05-01T18:19:43.773Z,95329.00
2019-05-01T18:25:28.239Z,95333.00
2019-05-01T18:30:56.723Z,95334.00
2019-05-01T18:36:38.078Z,95332.00
2019-05-01T18:42:12.196Z,95347.00
2019-05-01T18:47:41.988Z,95343.00
2019-05-01T18:53:12.652Z,95334.00
2019-05-01T18:58:42.718Z,95341.00
2019-05-01T19:04:18.408Z,95339.00
2019-05-01T19:09:48.378Z,95344.00
2019-05-01T19:15:21.585Z,95341.00
2019-05-01T19:20:59.343Z,95342.00
2019-05-01T19:26:26.712Z,95344.00
2019-05-01T19:32:08.926Z,95343.00
2019-05-01T19:37:38.821Z,95337.00
2019-05-01T19:43:08.877Z,95349.00
2019-05-01T19:48:38.991Z,95351.00
2019-05-01T19:54:09.120Z,95349.00
2019-05-01T19:59:38.848Z,95356.00
2019-05-01T20:05:11.305Z,95342.00
2019-05-01T20:10:42.450Z,95346.00
2019-05-01T20:16:13.110Z,95345.00
2019-05-01T20:21:44.182Z,95343.00
2019-05-01T20:27:14.596Z,95343.00
2019-05-01T20:32:50.293Z,95334.00
2019-05-01T20:38:20.632Z,95330.00
2019-05-01T20:43:50.478Z,95333.00
2019-05-01T20:49:24.235Z,95333.00
2019-05-01T20:54:53.857Z,95331.00
2019-05-01T21:00:25.164Z,95327.00
2019-05-01T21:06:02.885Z,95323.00
2019-05-01T21:11:31.894Z,95329.00
2019-05-01T21:17:01.545Z,95323.00
2019-05-01T21:22:33.387Z,95315.00
2019-05-01T21:28:04.167Z,95316.00
2019-05-01T21:33:34.131Z,95310.00
2019-05-01T21:39:05.493Z,95316.00
2019-05-01T21:44:35.120Z,95312.00
2019-05-01T21:50:04.957Z,95315.00
2019-05-01T21:55:34.544Z,95305.00
2019-05-01T22:01:13.062Z,95302.00
2019-05-01T22:06:46.921Z,95296.00
2019-05-01T22:12:14.504Z,95302.00
2019-05-01T22:18:00.491Z,95284.00
2019-05-01T22:23:31.697Z,95284.00
2019-05-01T22:29:02.777Z,95283.00
2019-05-01T22:34:46.408Z,95287.00
2019-05-01T22:40:17.982Z,95283.00
2019-05-01T22:45:48.331Z,95281.00
2019-05-01T22:51:19.600Z,95273.00
2019-05-01T22:56:49.295Z,95272.00
2019-05-01T23:02:24.141Z,95263.00
2019-05-01T23:07:57.041Z,95266.00
2019-05-01T23:13:25.889Z,95266.00
2019-05-01T23:18:55.598Z,95259.00
2019-05-01T23:24:25.198Z,95253.00
2019-05-01T23:29:54.590Z,95245.00
2019-05-01T23:35:24.279Z,95240.00
2019-05-01T23:40:53.970Z,95240.00
2019-05-01T23:46:24.356Z,95228.00
2019-05-01T23:51:53.904Z,95230.00
2019-05-01T23:57:23.318Z,95221.00
